sensor_id;sensor_type;location;lat;lon;timestamp;pressure;altitude;pressure_sealevel;temperature;humidity
53858;BME280;39763;51.188;6.690;2022-09-11T00:01:00;101264.22;;;18.09;84.55
53858;BME280;39763;51.188;6.690;2022-09-11T00:02:32;101273.81;;;18.12;84.62
53858;BME280;39763;51.188;6.690;2022-09-11T00:04:03;101267.56;;;18.13;84.20
53858;BME280;39763;51.188;6.690;2022-09-11T00:05:36;101267.75;;;18.10;84.09
53858;BME280;39763;51.188;6.690;2022-09-11T00:07:09;101267.06;;;18.06;84.21
53858;BME280;39763;51.188;6.690;2022-09-11T00:08:41;101265.50;;;18.02;84.20
53858;BME280;39763;51.188;6.690;2022-09-11T00:10:12;101264.81;;;17.98;84.36
53858;BME280;39763;51.188;6.690;2022-09-11T00:11:44;101271.84;;;18.00;84.45
53858;BME280;39763;51.188;6.690;2022-09-11T00:13:18;101273.72;;;17.97;84.28
53858;BME280;39763;51.188;6.690;2022-09-11T00:14:51;101270.47;;;17.92;84.48
53858;BME280;39763;51.188;6.690;2022-09-11T00:16:23;101275.97;;;17.89;84.69
53858;BME280;39763;51.188;6.690;2022-09-11T00:17:56;101285.03;;;17.85;84.77
53858;BME280;39763;51.188;6.690;2022-09-11T00:19:28;101279.00;;;17.82;84.82
53858;BME280;39763;51.188;6.690;2022-09-11T00:20:59;101282.88;;;17.76;85.20
53858;BME280;39763;51.188;6.690;2022-09-11T00:22:31;101285.69;;;17.73;85.20
53858;BME280;39763;51.188;6.690;2022-09-11T00:24:03;101287.56;;;17.71;85.39
53858;BME280;39763;51.188;6.690;2022-09-11T00:25:35;101281.47;;;17.69;85.25
53858;BME280;39763;51.188;6.690;2022-09-11T00:27:07;101282.63;;;17.65;85.53
53858;BME280;39763;51.188;6.690;2022-09-11T00:28:39;101287.81;;;17.67;85.47
53858;BME280;39763;51.188;6.690;2022-09-11T00:30:11;101289.44;;;17.69;85.44
53858;BME280;39763;51.188;6.690;2022-09-11T00:31:44;101291.88;;;17.74;85.24
53858;BME280;39763;51.188;6.690;2022-09-11T00:33:16;101288.28;;;17.75;85.00
53858;BME280;39763;51.188;6.690;2022-09-11T00:34:47;101294.28;;;17.78;85.04
53858;BME280;39763;51.188;6.690;2022-09-11T00:36:20;101288.78;;;17.81;84.88
53858;BME280;39763;51.188;6.690;2022-09-11T00:37:52;101294.78;;;17.85;84.65
53858;BME280;39763;51.188;6.690;2022-09-11T00:39:23;101295.56;;;17.87;84.41
53858;BME280;39763;51.188;6.690;2022-09-11T00:40:55;101299.88;;;17.89;84.42
53858;BME280;39763;51.188;6.690;2022-09-11T00:42:28;101293.63;;;17.90;84.27
53858;BME280;39763;51.188;6.690;2022-09-11T00:44:03;101291.19;;;17.86;83.94
53858;BME280;39763;51.188;6.690;2022-09-11T00:45:35;101298.47;;;17.82;83.85
53858;BME280;39763;51.188;6.690;2022-09-11T00:47:06;101290.59;;;17.81;84.07
53858;BME280;39763;51.188;6.690;2022-09-11T00:48:41;101288.97;;;17.78;84.19
53858;BME280;39763;51.188;6.690;2022-09-11T00:50:20;101290.69;;;17.79;84.24
53858;BME280;39763;51.188;6.690;2022-09-11T00:51:53;101296.88;;;17.80;84.05
53858;BME280;39763;51.188;6.690;2022-09-11T00:53:26;101296.94;;;17.78;83.96
53858;BME280;39763;51.188;6.690;2022-09-11T00:55:01;101296.25;;;17.75;83.97
53858;BME280;39763;51.188;6.690;2022-09-11T00:56:34;101299.06;;;17.72;83.87
53858;BME280;39763;51.188;6.690;2022-09-11T00:58:09;101303.88;;;17.65;83.97
53858;BME280;39763;51.188;6.690;2022-09-11T00:59:44;101308.59;;;17.58;84.06
53858;BME280;39763;51.188;6.690;2022-09-11T01:01:17;101302.75;;;17.52;84.49
53858;BME280;39763;51.188;6.690;2022-09-11T01:02:50;101311.34;;;17.40;85.12
53858;BME280;39763;51.188;6.690;2022-09-11T01:04:23;101314.34;;;17.34;85.57
53858;BME280;39763;51.188;6.690;2022-09-11T01:05:55;101310.03;;;17.31;85.86
53858;BME280;39763;51.188;6.690;2022-09-11T01:07:27;101308.19;;;17.33;86.16
53858;BME280;39763;51.188;6.690;2022-09-11T01:08:59;101313.06;;;17.41;85.70
53858;BME280;39763;51.188;6.690;2022-09-11T01:10:33;101314.56;;;17.46;85.45
53858;BME280;39763;51.188;6.690;2022-09-11T01:12:08;101317.13;;;17.48;85.03
53858;BME280;39763;51.188;6.690;2022-09-11T01:13:42;101311.19;;;17.43;85.34
53858;BME280;39763;51.188;6.690;2022-09-11T01:15:20;101314.16;;;17.37;85.58
53858;BME280;39763;51.188;6.690;2022-09-11T01:16:53;101313.72;;;17.28;85.67
53858;BME280;39763;51.188;6.690;2022-09-11T01:18:27;101315.66;;;17.25;86.08
53858;BME280;39763;51.188;6.690;2022-09-11T01:20:18;101313.25;;;17.20;86.12
53858;BME280;39763;51.188;6.690;2022-09-11T01:21:59;101318.72;;;17.17;86.25
53858;BME280;39763;51.188;6.690;2022-09-11T01:23:43;101325.91;;;17.15;86.33
53858;BME280;39763;51.188;6.690;2022-09-11T01:25:22;101336.44;;;17.17;86.87
53858;BME280;39763;51.188;6.690;2022-09-11T01:28:48;101332.59;;;17.22;86.77
53858;BME280;39763;51.188;6.690;2022-09-11T01:30:21;101329.88;;;17.24;86.60
53858;BME280;39763;51.188;6.690;2022-09-11T01:31:53;101342.75;;;17.32;86.32
53858;BME280;39763;51.188;6.690;2022-09-11T01:33:28;101335.59;;;17.34;86.06
53858;BME280;39763;51.188;6.690;2022-09-11T01:35:02;101348.69;;;17.37;85.87
53858;BME280;39763;51.188;6.690;2022-09-11T01:36:37;101340.63;;;17.38;85.87
53858;BME280;39763;51.188;6.690;2022-09-11T01:38:13;101349.53;;;17.37;85.75
53858;BME280;39763;51.188;6.690;2022-09-11T01:39:47;101344.00;;;17.42;85.78
53858;BME280;39763;51.188;6.690;2022-09-11T01:41:22;101337.03;;;17.39;85.35
53858;BME280;39763;51.188;6.690;2022-09-11T01:43:00;101348.69;;;17.37;85.41
53858;BME280;39763;51.188;6.690;2022-09-11T01:44:38;101349.66;;;17.36;85.92
53858;BME280;39763;51.188;6.690;2022-09-11T01:46:15;101341.56;;;17.37;85.92
53858;BME280;39763;51.188;6.690;2022-09-11T01:47:48;101354.97;;;17.36;85.91
53858;BME280;39763;51.188;6.690;2022-09-11T01:49:24;101349.53;;;17.37;85.98
53858;BME280;39763;51.188;6.690;2022-09-11T01:50:57;101345.34;;;17.33;85.92
53858;BME280;39763;51.188;6.690;2022-09-11T01:52:38;101353.84;;;17.22;86.42
53858;BME280;39763;51.188;6.690;2022-09-11T01:54:13;101336.38;;;17.18;86.77
53858;BME280;39763;51.188;6.690;2022-09-11T01:55:47;101343.53;;;17.16;87.15
53858;BME280;39763;51.188;6.690;2022-09-11T01:57:22;101341.75;;;17.17;87.10
53858;BME280;39763;51.188;6.690;2022-09-11T01:58:59;101354.16;;;17.16;87.50
53858;BME280;39763;51.188;6.690;2022-09-11T02:00:34;101347.84;;;17.19;87.20
53858;BME280;39763;51.188;6.690;2022-09-11T02:02:09;101349.00;;;17.13;87.44
53858;BME280;39763;51.188;6.690;2022-09-11T02:03:43;101345.56;;;17.11;87.72
53858;BME280;39763;51.188;6.690;2022-09-11T02:05:17;101358.47;;;17.19;87.29
53858;BME280;39763;51.188;6.690;2022-09-11T02:06:54;101353.38;;;17.14;87.87
53858;BME280;39763;51.188;6.690;2022-09-11T02:08:33;101359.69;;;17.12;88.12
53858;BME280;39763;51.188;6.690;2022-09-11T02:10:07;101348.94;;;17.15;88.06
53858;BME280;39763;51.188;6.690;2022-09-11T02:11:39;101358.69;;;17.14;88.02
53858;BME280;39763;51.188;6.690;2022-09-11T02:13:13;101361.63;;;17.08;87.93
53858;BME280;39763;51.188;6.690;2022-09-11T02:14:45;101366.41;;;17.02;88.18
53858;BME280;39763;51.188;6.690;2022-09-11T02:16:21;101351.50;;;16.99;88.73
53858;BME280;39763;51.188;6.690;2022-09-11T02:17:57;101358.75;;;16.96;89.10
53858;BME280;39763;51.188;6.690;2022-09-11T02:19:32;101365.84;;;16.95;89.27
53858;BME280;39763;51.188;6.690;2022-09-11T02:21:04;101366.78;;;16.94;89.62
53858;BME280;39763;51.188;6.690;2022-09-11T02:22:36;101365.84;;;16.95;89.62
53858;BME280;39763;51.188;6.690;2022-09-11T02:24:07;101361.25;;;16.99;89.87
53858;BME280;39763;51.188;6.690;2022-09-11T02:25:39;101367.28;;;17.02;89.40
53858;BME280;39763;51.188;6.690;2022-09-11T02:27:14;101367.34;;;17.01;89.37
53858;BME280;39763;51.188;6.690;2022-09-11T02:28:47;101366.25;;;17.05;89.27
53858;BME280;39763;51.188;6.690;2022-09-11T02:30:19;101362.69;;;17.06;89.64
53858;BME280;39763;51.188;6.690;2022-09-11T02:31:52;101369.66;;;17.07;89.26
53858;BME280;39763;51.188;6.690;2022-09-11T02:33:28;101368.91;;;17.05;89.45
53858;BME280;39763;51.188;6.690;2022-09-11T02:35:00;101371.56;;;17.05;89.77
53858;BME280;39763;51.188;6.690;2022-09-11T02:36:34;101356.41;;;17.07;89.96
53858;BME280;39763;51.188;6.690;2022-09-11T02:38:10;101365.41;;;17.04;89.85
53858;BME280;39763;51.188;6.690;2022-09-11T02:39:57;101378.88;;;17.00;90.20
53858;BME280;39763;51.188;6.690;2022-09-11T02:41:31;101373.97;;;17.09;90.52
53858;BME280;39763;51.188;6.690;2022-09-11T02:43:16;101369.38;;;17.13;89.56
53858;BME280;39763;51.188;6.690;2022-09-11T02:44:52;101371.31;;;17.09;89.79
53858;BME280;39763;51.188;6.690;2022-09-11T02:46:34;101370.47;;;17.09;89.98
53858;BME280;39763;51.188;6.690;2022-09-11T02:48:18;101375.69;;;17.10;89.97
53858;BME280;39763;51.188;6.690;2022-09-11T02:49:57;101372.09;;;17.11;89.84
53858;BME280;39763;51.188;6.690;2022-09-11T02:51:30;101375.63;;;17.12;89.85
53858;BME280;39763;51.188;6.690;2022-09-11T02:53:05;101373.75;;;17.14;89.29
53858;BME280;39763;51.188;6.690;2022-09-11T02:54:43;101370.88;;;17.18;89.16
53858;BME280;39763;51.188;6.690;2022-09-11T02:56:22;101376.97;;;17.20;89.33
53858;BME280;39763;51.188;6.690;2022-09-11T02:57:56;101375.06;;;17.22;89.28
53858;BME280;39763;51.188;6.690;2022-09-11T02:59:29;101374.78;;;17.28;89.08
53858;BME280;39763;51.188;6.690;2022-09-11T03:01:02;101377.22;;;17.33;88.65
53858;BME280;39763;51.188;6.690;2022-09-11T03:02:38;101377.81;;;17.38;88.72
53858;BME280;39763;51.188;6.690;2022-09-11T03:04:12;101374.63;;;17.32;88.53
53858;BME280;39763;51.188;6.690;2022-09-11T03:05:46;101381.16;;;17.24;88.64
53858;BME280;39763;51.188;6.690;2022-09-11T03:07:17;101378.84;;;17.18;88.98
53858;BME280;39763;51.188;6.690;2022-09-11T03:08:50;101378.06;;;17.16;89.18
53858;BME280;39763;51.188;6.690;2022-09-11T03:10:21;101378.91;;;17.17;89.04
53858;BME280;39763;51.188;6.690;2022-09-11T03:11:54;101378.91;;;17.17;89.34
53858;BME280;39763;51.188;6.690;2022-09-11T03:13:26;101380.13;;;17.10;89.87
53858;BME280;39763;51.188;6.690;2022-09-11T03:14:57;101386.31;;;17.10;89.79
53858;BME280;39763;51.188;6.690;2022-09-11T03:16:29;101387.41;;;17.06;90.11
53858;BME280;39763;51.188;6.690;2022-09-11T03:18:00;101385.31;;;17.13;89.80
53858;BME280;39763;51.188;6.690;2022-09-11T03:19:33;101382.56;;;17.14;89.97
53858;BME280;39763;51.188;6.690;2022-09-11T03:21:04;101380.56;;;17.19;89.50
53858;BME280;39763;51.188;6.690;2022-09-11T03:22:36;101388.66;;;17.16;89.82
53858;BME280;39763;51.188;6.690;2022-09-11T03:24:08;101384.28;;;17.15;89.41
53858;BME280;39763;51.188;6.690;2022-09-11T03:25:40;101392.13;;;17.18;89.28
53858;BME280;39763;51.188;6.690;2022-09-11T03:27:12;101393.66;;;17.22;89.64
53858;BME280;39763;51.188;6.690;2022-09-11T03:28:44;101398.75;;;17.27;89.01
53858;BME280;39763;51.188;6.690;2022-09-11T03:30:18;101396.81;;;17.31;89.01
53858;BME280;39763;51.188;6.690;2022-09-11T03:31:52;101398.75;;;17.27;88.89
53858;BME280;39763;51.188;6.690;2022-09-11T03:33:24;101395.09;;;17.30;88.40
53858;BME280;39763;51.188;6.690;2022-09-11T03:34:57;101395.09;;;17.30;88.67
53858;BME280;39763;51.188;6.690;2022-09-11T03:36:29;101398.03;;;17.23;88.86
53858;BME280;39763;51.188;6.690;2022-09-11T03:38:00;101405.31;;;17.20;88.96
53858;BME280;39763;51.188;6.690;2022-09-11T03:39:32;101401.94;;;17.16;89.36
53858;BME280;39763;51.188;6.690;2022-09-11T03:41:04;101409.84;;;17.18;88.98
53858;BME280;39763;51.188;6.690;2022-09-11T03:42:36;101407.97;;;17.20;89.22
53858;BME280;39763;51.188;6.690;2022-09-11T03:44:07;101395.16;;;17.28;89.28
53858;BME280;39763;51.188;6.690;2022-09-11T03:45:39;101395.31;;;17.25;88.88
53858;BME280;39763;51.188;6.690;2022-09-11T03:47:12;101406.00;;;17.23;89.17
53858;BME280;39763;51.188;6.690;2022-09-11T03:48:44;101406.25;;;17.19;88.91
53858;BME280;39763;51.188;6.690;2022-09-11T03:50:19;101402.09;;;17.13;89.44
53858;BME280;39763;51.188;6.690;2022-09-11T03:51:51;101404.03;;;17.10;89.49
53858;BME280;39763;51.188;6.690;2022-09-11T03:53:24;101403.25;;;17.08;89.73
53858;BME280;39763;51.188;6.690;2022-09-11T03:54:55;101410.13;;;17.12;89.61
53858;BME280;39763;51.188;6.690;2022-09-11T03:56:28;101408.13;;;17.17;89.73
53858;BME280;39763;51.188;6.690;2022-09-11T03:57:59;101401.63;;;17.22;89.25
53858;BME280;39763;51.188;6.690;2022-09-11T03:59:31;101399.59;;;17.27;89.30
53858;BME280;39763;51.188;6.690;2022-09-11T04:01:06;101410.06;;;17.31;89.14
53858;BME280;39763;51.188;6.690;2022-09-11T04:02:38;101407.34;;;17.32;88.95
53858;BME280;39763;51.188;6.690;2022-09-11T04:04:09;101406.50;;;17.32;88.58
53858;BME280;39763;51.188;6.690;2022-09-11T04:05:55;101398.31;;;17.36;88.62
53858;BME280;39763;51.188;6.690;2022-09-11T04:07:27;101407.72;;;17.42;88.54
53858;BME280;39763;51.188;6.690;2022-09-11T04:09:01;101404.13;;;17.43;88.14
53858;BME280;39763;51.188;6.690;2022-09-11T04:10:33;101410.06;;;17.31;88.22
53858;BME280;39763;51.188;6.690;2022-09-11T04:12:06;101412.81;;;17.29;88.48
53858;BME280;39763;51.188;6.690;2022-09-11T04:13:38;101411.16;;;17.26;88.38
53858;BME280;39763;51.188;6.690;2022-09-11T04:15:12;101412.34;;;17.21;88.75
53858;BME280;39763;51.188;6.690;2022-09-11T04:16:44;101410.63;;;17.20;89.15
53858;BME280;39763;51.188;6.690;2022-09-11T04:18:16;101417.72;;;17.19;88.73
53858;BME280;39763;51.188;6.690;2022-09-11T04:19:47;101414.28;;;17.17;88.80
53858;BME280;39763;51.188;6.690;2022-09-11T04:21:21;101416.38;;;17.11;89.25
53858;BME280;39763;51.188;6.690;2022-09-11T04:22:55;101413.25;;;17.03;89.39
53858;BME280;39763;51.188;6.690;2022-09-11T04:24:26;101410.16;;;16.93;89.89
53858;BME280;39763;51.188;6.690;2022-09-11T04:25:59;101411.81;;;16.96;89.85
53858;BME280;39763;51.188;6.690;2022-09-11T04:27:31;101417.13;;;16.96;89.87
53858;BME280;39763;51.188;6.690;2022-09-11T04:29:03;101423.13;;;16.99;89.84
53858;BME280;39763;51.188;6.690;2022-09-11T04:30:35;101411.09;;;16.92;89.76
53858;BME280;39763;51.188;6.690;2022-09-11T04:32:08;101411.69;;;16.80;90.58
53858;BME280;39763;51.188;6.690;2022-09-11T04:33:43;101415.78;;;16.87;90.58
53858;BME280;39763;51.188;6.690;2022-09-11T04:35:14;101419.50;;;16.83;90.38
53858;BME280;39763;51.188;6.690;2022-09-11T04:36:55;101417.78;;;16.82;90.80
53858;BME280;39763;51.188;6.690;2022-09-11T04:38:27;101416.00;;;16.82;90.50
53858;BME280;39763;51.188;6.690;2022-09-11T04:40:00;101426.75;;;16.79;90.62
53858;BME280;39763;51.188;6.690;2022-09-11T04:41:33;101420.50;;;16.80;90.86
53858;BME280;39763;51.188;6.690;2022-09-11T04:43:05;101414.91;;;16.86;91.13
53858;BME280;39763;51.188;6.690;2022-09-11T04:44:38;101420.44;;;16.82;90.59
53858;BME280;39763;51.188;6.690;2022-09-11T04:46:10;101421.00;;;16.88;90.80
53858;BME280;39763;51.188;6.690;2022-09-11T04:47:42;101420.50;;;16.99;90.46
53858;BME280;39763;51.188;6.690;2022-09-11T04:49:16;101421.34;;;17.00;90.00
53858;BME280;39763;51.188;6.690;2022-09-11T04:50:56;101429.09;;;17.04;89.88
53858;BME280;39763;51.188;6.690;2022-09-11T04:52:29;101428.84;;;17.09;89.50
53858;BME280;39763;51.188;6.690;2022-09-11T04:54:01;101431.56;;;17.07;89.48
53858;BME280;39763;51.188;6.690;2022-09-11T04:55:37;101426.25;;;17.07;89.90
53858;BME280;39763;51.188;6.690;2022-09-11T04:57:09;101431.94;;;17.18;89.46
53858;BME280;39763;51.188;6.690;2022-09-11T04:58:42;101428.16;;;17.22;89.12
53858;BME280;39763;51.188;6.690;2022-09-11T05:00:13;101433.97;;;17.31;89.09
53858;BME280;39763;51.188;6.690;2022-09-11T05:01:45;101427.41;;;17.38;88.27
53858;BME280;39763;51.188;6.690;2022-09-11T05:03:18;101429.69;;;17.45;88.00
53858;BME280;39763;51.188;6.690;2022-09-11T05:04:51;101438.44;;;17.47;87.80
53858;BME280;39763;51.188;6.690;2022-09-11T05:06:22;101429.47;;;17.50;87.62
53858;BME280;39763;51.188;6.690;2022-09-11T05:07:55;101429.34;;;17.51;87.23
53858;BME280;39763;51.188;6.690;2022-09-11T05:09:27;101435.72;;;17.49;86.61
53858;BME280;39763;51.188;6.690;2022-09-11T05:10:59;101436.88;;;17.43;86.63
53858;BME280;39763;51.188;6.690;2022-09-11T05:12:31;101443.66;;;17.32;86.90
53858;BME280;39763;51.188;6.690;2022-09-11T05:14:03;101446.59;;;17.25;87.00
53858;BME280;39763;51.188;6.690;2022-09-11T05:15:36;101447.78;;;17.20;87.81
53858;BME280;39763;51.188;6.690;2022-09-11T05:17:08;101447.34;;;17.10;88.38
53858;BME280;39763;51.188;6.690;2022-09-11T05:18:48;101449.69;;;16.99;88.73
53858;BME280;39763;51.188;6.690;2022-09-11T05:20:20;101456.56;;;16.84;89.77
53858;BME280;39763;51.188;6.690;2022-09-11T05:21:51;101452.41;;;16.98;89.90
53858;BME280;39763;51.188;6.690;2022-09-11T05:23:24;101458.97;;;17.08;89.24
53858;BME280;39763;51.188;6.690;2022-09-11T05:24:56;101464.72;;;17.17;88.50
53858;BME280;39763;51.188;6.690;2022-09-11T05:26:30;101465.19;;;17.25;88.46
53858;BME280;39763;51.188;6.690;2022-09-11T05:28:03;101460.19;;;17.37;88.00
53858;BME280;39763;51.188;6.690;2022-09-11T05:29:35;101464.13;;;17.47;87.68
53858;BME280;39763;51.188;6.690;2022-09-11T05:31:14;101464.66;;;17.53;86.87
53858;BME280;39763;51.188;6.690;2022-09-11T05:32:47;101462.66;;;17.58;86.48
53858;BME280;39763;51.188;6.690;2022-09-11T05:34:25;101468.56;;;17.65;86.37
53858;BME280;39763;51.188;6.690;2022-09-11T05:36:01;101466.50;;;17.70;85.83
53858;BME280;39763;51.188;6.690;2022-09-11T05:37:33;101476.06;;;17.74;85.78
53858;BME280;39763;51.188;6.690;2022-09-11T05:39:08;101479.50;;;17.76;85.17
53858;BME280;39763;51.188;6.690;2022-09-11T05:40:43;101477.63;;;17.78;85.16
53858;BME280;39763;51.188;6.690;2022-09-11T05:42:14;101477.78;;;17.75;84.54
53858;BME280;39763;51.188;6.690;2022-09-11T05:43:51;101484.16;;;17.71;84.83
53858;BME280;39763;51.188;6.690;2022-09-11T05:45:22;101480.66;;;17.71;85.20
53858;BME280;39763;51.188;6.690;2022-09-11T05:46:55;101492.59;;;17.62;85.39
53858;BME280;39763;51.188;6.690;2022-09-11T05:48:27;101487.19;;;17.46;85.94
53858;BME280;39763;51.188;6.690;2022-09-11T05:50:00;101490.25;;;17.37;86.71
53858;BME280;39763;51.188;6.690;2022-09-11T05:51:33;101492.25;;;17.34;86.76
53858;BME280;39763;51.188;6.690;2022-09-11T05:53:08;101498.47;;;17.33;87.38
53858;BME280;39763;51.188;6.690;2022-09-11T05:54:41;101498.69;;;17.28;86.66
53858;BME280;39763;51.188;6.690;2022-09-11T05:56:14;101501.50;;;17.25;87.16
53858;BME280;39763;51.188;6.690;2022-09-11T05:57:46;101503.16;;;17.27;87.19
53858;BME280;39763;51.188;6.690;2022-09-11T05:59:18;101501.28;;;17.30;87.27
53858;BME280;39763;51.188;6.690;2022-09-11T06:00:52;101498.41;;;17.34;87.10
53858;BME280;39763;51.188;6.690;2022-09-11T06:02:33;101502.47;;;17.41;86.65
53858;BME280;39763;51.188;6.690;2022-09-11T06:04:07;101499.97;;;17.38;86.55
53858;BME280;39763;51.188;6.690;2022-09-11T06:05:39;101504.06;;;17.26;86.49
53858;BME280;39763;51.188;6.690;2022-09-11T06:07:10;101502.03;;;17.14;87.33
53858;BME280;39763;51.188;6.690;2022-09-11T06:08:44;101504.69;;;17.14;87.48
53858;BME280;39763;51.188;6.690;2022-09-11T06:10:18;101509.19;;;17.12;87.86
53858;BME280;39763;51.188;6.690;2022-09-11T06:11:50;101511.72;;;17.15;88.15
53858;BME280;39763;51.188;6.690;2022-09-11T06:13:21;101503.75;;;17.15;87.71
53858;BME280;39763;51.188;6.690;2022-09-11T06:14:55;101506.59;;;17.11;87.40
53858;BME280;39763;51.188;6.690;2022-09-11T06:16:26;101510.06;;;17.13;87.68
53858;BME280;39763;51.188;6.690;2022-09-11T06:18:02;101503.59;;;17.18;87.70
53858;BME280;39763;51.188;6.690;2022-09-11T06:19:37;101505.09;;;17.24;87.27
53858;BME280;39763;51.188;6.690;2022-09-11T06:21:10;101501.75;;;17.38;87.10
53858;BME280;39763;51.188;6.690;2022-09-11T06:22:48;101512.56;;;17.52;86.39
53858;BME280;39763;51.188;6.690;2022-09-11T06:24:21;101515.63;;;17.61;85.63
53858;BME280;39763;51.188;6.690;2022-09-11T06:26:00;101514.34;;;17.70;85.55
53858;BME280;39763;51.188;6.690;2022-09-11T06:27:33;101518.06;;;17.66;84.77
53858;BME280;39763;51.188;6.690;2022-09-11T06:29:04;101521.94;;;17.59;85.14
53858;BME280;39763;51.188;6.690;2022-09-11T06:30:39;101523.97;;;17.54;85.42
53858;BME280;39763;51.188;6.690;2022-09-11T06:32:13;101523.09;;;17.53;85.49
53858;BME280;39763;51.188;6.690;2022-09-11T06:33:45;101511.19;;;17.62;86.27
53858;BME280;39763;51.188;6.690;2022-09-11T06:35:17;101525.75;;;17.72;85.89
53858;BME280;39763;51.188;6.690;2022-09-11T06:36:48;101520.06;;;17.80;85.38
53858;BME280;39763;51.188;6.690;2022-09-11T06:38:23;101518.78;;;17.87;85.06
53858;BME280;39763;51.188;6.690;2022-09-11T06:39:54;101514.03;;;17.93;84.96
53858;BME280;39763;51.188;6.690;2022-09-11T06:41:31;101520.75;;;18.01;84.54
53858;BME280;39763;51.188;6.690;2022-09-11T06:43:08;101518.72;;;18.06;84.21
53858;BME280;39763;51.188;6.690;2022-09-11T06:44:39;101522.47;;;18.02;83.52
53858;BME280;39763;51.188;6.690;2022-09-11T06:46:15;101525.47;;;17.95;83.73
53858;BME280;39763;51.188;6.690;2022-09-11T06:47:47;101527.16;;;17.96;84.09
53858;BME280;39763;51.188;6.690;2022-09-11T06:49:19;101534.91;;;18.01;84.41
53858;BME280;39763;51.188;6.690;2022-09-11T06:51:10;101529.28;;;18.07;84.21
53858;BME280;39763;51.188;6.690;2022-09-11T06:52:42;101528.09;;;18.13;83.80
53858;BME280;39763;51.188;6.690;2022-09-11T06:54:28;101530.59;;;18.16;83.42
53858;BME280;39763;51.188;6.690;2022-09-11T06:56:01;101533.97;;;18.19;83.24
53858;BME280;39763;51.188;6.690;2022-09-11T06:57:36;101534.66;;;18.23;82.93
53858;BME280;39763;51.188;6.690;2022-09-11T06:59:16;101538.09;;;18.25;82.64
53858;BME280;39763;51.188;6.690;2022-09-11T07:00:48;101539.91;;;18.24;82.48
53858;BME280;39763;51.188;6.690;2022-09-11T07:02:19;101542.38;;;18.27;82.75
53858;BME280;39763;51.188;6.690;2022-09-11T07:03:52;101537.91;;;18.28;82.43
53858;BME280;39763;51.188;6.690;2022-09-11T07:05:24;101536.03;;;18.30;82.49
53858;BME280;39763;51.188;6.690;2022-09-11T07:06:56;101543.09;;;18.31;82.65
53858;BME280;39763;51.188;6.690;2022-09-11T07:08:28;101543.78;;;18.35;82.36
53858;BME280;39763;51.188;6.690;2022-09-11T07:10:00;101539.19;;;18.38;82.29
53858;BME280;39763;51.188;6.690;2022-09-11T07:11:36;101536.53;;;18.38;82.07
53858;BME280;39763;51.188;6.690;2022-09-11T07:13:10;101541.06;;;18.36;81.83
53858;BME280;39763;51.188;6.690;2022-09-11T07:14:42;101544.66;;;18.35;81.91
53858;BME280;39763;51.188;6.690;2022-09-11T07:16:18;101545.25;;;18.40;82.26
53858;BME280;39763;51.188;6.690;2022-09-11T07:17:57;101543.22;;;18.45;81.60
53858;BME280;39763;51.188;6.690;2022-09-11T07:19:28;101545.03;;;18.45;81.31
53858;BME280;39763;51.188;6.690;2022-09-11T07:21:04;101540.41;;;18.48;81.81
53858;BME280;39763;51.188;6.690;2022-09-11T07:22:38;101547.53;;;18.48;81.46
53858;BME280;39763;51.188;6.690;2022-09-11T07:24:10;101545.03;;;18.45;80.89
53858;BME280;39763;51.188;6.690;2022-09-11T07:25:44;101546.38;;;18.36;81.64
53858;BME280;39763;51.188;6.690;2022-09-11T07:27:16;101546.38;;;18.36;82.01
53858;BME280;39763;51.188;6.690;2022-09-11T07:28:51;101550.34;;;18.45;82.33
53858;BME280;39763;51.188;6.690;2022-09-11T07:30:23;101550.88;;;18.51;82.07
53858;BME280;39763;51.188;6.690;2022-09-11T07:31:58;101551.91;;;18.49;81.26
53858;BME280;39763;51.188;6.690;2022-09-11T07:33:31;101548.69;;;18.42;81.50
53858;BME280;39763;51.188;6.690;2022-09-11T07:35:07;101559.69;;;18.36;81.48
53858;BME280;39763;51.188;6.690;2022-09-11T07:36:38;101551.22;;;18.28;81.52
53858;BME280;39763;51.188;6.690;2022-09-11T07:38:12;101556.06;;;18.37;82.24
53858;BME280;39763;51.188;6.690;2022-09-11T07:39:44;101558.88;;;18.51;82.50
53858;BME280;39763;51.188;6.690;2022-09-11T07:41:22;101557.38;;;18.63;82.05
53858;BME280;39763;51.188;6.690;2022-09-11T07:42:57;101561.09;;;18.76;81.53
53858;BME280;39763;51.188;6.690;2022-09-11T07:44:32;101557.06;;;18.85;81.19
53858;BME280;39763;51.188;6.690;2022-09-11T07:46:04;101555.81;;;18.92;80.66
53858;BME280;39763;51.188;6.690;2022-09-11T07:47:38;101558.22;;;18.96;79.80
53858;BME280;39763;51.188;6.690;2022-09-11T07:49:10;101558.03;;;18.99;79.76
53858;BME280;39763;51.188;6.690;2022-09-11T07:50:53;101563.13;;;19.04;79.16
53858;BME280;39763;51.188;6.690;2022-09-11T07:52:25;101561.31;;;19.05;78.77
53858;BME280;39763;51.188;6.690;2022-09-11T07:54:03;101569.22;;;19.06;78.63
53858;BME280;39763;51.188;6.690;2022-09-11T07:55:36;101567.50;;;19.05;78.13
53858;BME280;39763;51.188;6.690;2022-09-11T07:57:08;101573.25;;;18.97;78.06
53858;BME280;39763;51.188;6.690;2022-09-11T07:58:40;101567.16;;;18.95;78.04
53858;BME280;39763;51.188;6.690;2022-09-11T08:00:14;101569.72;;;18.97;78.64
53858;BME280;39763;51.188;6.690;2022-09-11T08:01:52;101563.47;;;18.98;78.38
53858;BME280;39763;51.188;6.690;2022-09-11T08:03:26;101575.47;;;19.05;79.23
53858;BME280;39763;51.188;6.690;2022-09-11T08:04:58;101574.81;;;19.17;79.43
53858;BME280;39763;51.188;6.690;2022-09-11T08:06:31;101578.94;;;19.38;79.59
53858;BME280;39763;51.188;6.690;2022-09-11T08:08:05;101582.81;;;19.64;79.10
53858;BME280;39763;51.188;6.690;2022-09-11T08:09:38;101580.44;;;19.90;77.75
53858;BME280;39763;51.188;6.690;2022-09-11T08:11:12;101584.25;;;20.16;77.21
53858;BME280;39763;51.188;6.690;2022-09-11T08:12:44;101587.38;;;20.38;76.51